createdAt,value
2023-11-10T00:00:10.681Z,94154.00
2023-11-10T00:01:10.634Z,94154.00
2023-11-10T00:02:10.557Z,94154.00
2023-11-10T00:03:10.798Z,94152.00
2023-11-10T00:04:10.893Z,94148.00
2023-11-10T00:05:10.826Z,94142.00
2023-11-10T00:06:10.620Z,94142.00
2023-11-10T00:07:10.622Z,94142.00
2023-11-10T00:08:10.520Z,94140.00
2023-11-10T00:09:10.688Z,94140.00
2023-11-10T00:10:10.526Z,94132.00
2023-11-10T00:11:10.505Z,94126.00
2023-11-10T00:12:10.597Z,94126.00
2023-11-10T00:13:10.511Z,94126.00
2023-11-10T00:14:13.794Z,94120.00
2023-11-10T00:15:10.673Z,94117.00
2023-11-10T00:16:11.497Z,94113.00
2023-11-10T00:17:10.552Z,94111.00
2023-11-10T00:18:10.479Z,94111.00
2023-11-10T00:19:10.444Z,94099.00
2023-11-10T00:20:10.475Z,94103.00
2023-11-10T00:21:10.444Z,94101.00
2023-11-10T00:22:11.902Z,94101.00
2023-11-10T00:23:10.415Z,94099.00
2023-11-10T00:24:10.562Z,94097.00
2023-11-10T00:25:10.525Z,94097.00
2023-11-10T00:26:10.526Z,94087.00
2023-11-10T00:27:10.564Z,94097.00
2023-11-10T00:28:10.536Z,94087.00
2023-11-10T00:29:10.644Z,94081.00
2023-11-10T00:30:10.704Z,94087.00
2023-11-10T00:31:10.658Z,94089.00
2023-11-10T00:32:10.777Z,94085.00
2023-11-10T00:33:10.914Z,94081.00
2023-11-10T00:34:10.864Z,94074.00
2023-11-10T00:35:10.892Z,94068.00
2023-11-10T00:36:10.833Z,94066.00
2023-11-10T00:37:10.844Z,94066.00
2023-11-10T00:38:10.906Z,94068.00
2023-11-10T00:39:10.983Z,94070.00
2023-11-10T00:40:11.014Z,94066.00
2023-11-10T00:41:11.039Z,94066.00
2023-11-10T00:42:11.067Z,94064.00
2023-11-10T00:43:11.060Z,94062.00
2023-11-10T00:44:11.064Z,94058.00
2023-11-10T00:45:11.219Z,94052.00
2023-11-10T00:46:11.192Z,94056.00
2023-11-10T00:47:11.285Z,94056.00
2023-11-10T00:48:11.347Z,94058.00
2023-11-10T00:49:11.396Z,94056.00
2023-11-10T00:50:11.587Z,94056.00
2023-11-10T00:51:11.459Z,94056.00
2023-11-10T00:52:11.416Z,94054.00
2023-11-10T00:53:11.436Z,94056.00
2023-11-10T00:54:11.556Z,94062.00
2023-11-10T00:55:11.666Z,94062.00
2023-11-10T00:56:11.522Z,94064.00
2023-11-10T00:57:11.593Z,94068.00
2023-11-10T00:58:11.556Z,94070.00
2023-11-10T00:59:11.590Z,94074.00
2023-11-10T01:00:11.668Z,94072.00
2023-11-10T01:01:11.685Z,94072.00
2023-11-10T01:02:11.765Z,94072.00
2023-11-10T01:03:11.765Z,94074.00
2023-11-10T01:04:12.076Z,94064.00
2023-11-10T01:05:11.804Z,94066.00
2023-11-10T01:06:12.206Z,94070.00
2023-11-10T01:07:11.854Z,94066.00
2023-11-10T01:08:11.952Z,94072.00
2023-11-10T01:09:12.004Z,94070.00
2023-11-10T01:10:11.934Z,94068.00
2023-11-10T01:11:11.972Z,94072.00
2023-11-10T01:12:12.105Z,94068.00
2023-11-10T01:13:12.072Z,94070.00
2023-11-10T01:14:12.077Z,94064.00
2023-11-10T01:15:12.193Z,94066.00
2023-11-10T01:16:12.094Z,94068.00
2023-11-10T01:17:12.215Z,94074.00
2023-11-10T01:18:13.015Z,94072.00
2023-11-10T01:19:12.829Z,94068.00
2023-11-10T01:20:12.203Z,94066.00
2023-11-10T01:21:12.259Z,94064.00
2023-11-10T01:22:12.242Z,94056.00
2023-11-10T01:23:12.254Z,94054.00
2023-11-10T01:24:12.374Z,94062.00
2023-11-10T01:25:12.281Z,94070.00
2023-11-10T01:26:12.250Z,94066.00
2023-11-10T01:27:12.342Z,94064.00
2023-11-10T01:28:12.282Z,94064.00
2023-11-10T01:29:12.364Z,94064.00
2023-11-10T01:30:12.337Z,94066.00
2023-11-10T01:31:12.283Z,94066.00
2023-11-10T01:32:12.313Z,94066.00
2023-11-10T01:33:12.438Z,94068.00
2023-11-10T01:34:12.978Z,94070.00
2023-11-10T01:35:12.422Z,94072.00
2023-11-10T01:36:12.416Z,94075.00
2023-11-10T01:37:12.353Z,94079.00
2023-11-10T01:38:12.365Z,94081.00
2023-11-10T01:39:12.471Z,94079.00
2023-11-10T01:40:12.479Z,94075.00
2023-11-10T01:41:12.471Z,94070.00
2023-11-10T01:42:12.644Z,94070.00
2023-11-10T01:43:12.606Z,94070.00
2023-11-10T01:44:12.698Z,94068.00
2023-11-10T01:45:12.820Z,94068.00
2023-11-10T01:46:12.738Z,94070.00
2023-11-10T01:47:12.857Z,94068.00
2023-11-10T01:48:12.786Z,94068.00
2023-11-10T01:49:12.660Z,94066.00
2023-11-10T01:50:12.647Z,94066.00
2023-11-10T01:51:12.760Z,94068.00
2023-11-10T01:52:12.748Z,94072.00
2023-11-10T01:53:12.845Z,94070.00
2023-11-10T01:54:12.902Z,94068.00
2023-11-10T01:55:12.901Z,94064.00
2023-11-10T01:56:13.404Z,94058.00
2023-11-10T01:57:12.951Z,94060.00
2023-11-10T01:58:13.089Z,94054.00
2023-11-10T01:59:12.905Z,94054.00
2023-11-10T02:00:12.933Z,94054.00
2023-11-10T02:01:13.834Z,94050.00
2023-11-10T02:02:13.074Z,94044.00
2023-11-10T02:03:13.068Z,94042.00
2023-11-10T02:04:13.028Z,94046.00
2023-11-10T02:05:13.042Z,94046.00
2023-11-10T02:06:13.063Z,94046.00
2023-11-10T02:07:13.046Z,94052.00
2023-11-10T02:08:13.113Z,94052.00
2023-11-10T02:09:13.011Z,94046.00
2023-11-10T02:10:13.038Z,94040.00
2023-11-10T02:11:13.076Z,94034.00
2023-11-10T02:12:13.130Z,94026.00
2023-11-10T02:13:13.914Z,94022.00
2023-11-10T02:14:13.192Z,94020.00
2023-11-10T02:15:13.247Z,94026.00
2023-11-10T02:16:13.482Z,94028.00
2023-11-10T02:17:13.304Z,94024.00
2023-11-10T02:18:13.366Z,94028.00
2023-11-10T02:19:13.434Z,94026.00
2023-11-10T02:20:13.508Z,94030.00
2023-11-10T02:21:13.704Z,94036.00
2023-11-10T02:22:13.598Z,94042.00
2023-11-10T02:23:14.406Z,94038.00
2023-11-10T02:24:13.729Z,94032.00
2023-11-10T02:25:13.811Z,94028.00
2023-11-10T02:26:13.806Z,94028.00
2023-11-10T02:27:13.865Z,94028.00
2023-11-10T02:28:13.779Z,94028.00
2023-11-10T02:29:13.819Z,94024.00
2023-11-10T02:30:14.358Z,94022.00
2023-11-10T02:31:13.998Z,94019.00
2023-11-10T02:32:13.931Z,94015.00
2023-11-10T02:33:14.067Z,94015.00
2023-11-10T02:34:13.964Z,94013.00
2023-11-10T02:35:14.078Z,94019.00
2023-11-10T02:36:14.150Z,94017.00
2023-11-10T02:37:14.390Z,94013.00
2023-11-10T02:38:17.366Z,94005.00
2023-11-10T02:39:14.130Z,94005.00
2023-11-10T02:40:14.104Z,94003.00
2023-11-10T02:41:14.106Z,94005.00
2023-11-10T02:42:14.140Z,94009.00
2023-11-10T02:43:14.081Z,94003.00
2023-11-10T02:44:14.162Z,94003.00
2023-11-10T02:58:55.437Z,94013.00
2023-11-10T02:59:55.407Z,94007.00
2023-11-10T03:00:55.371Z,94005.00
2023-11-10T03:01:55.111Z,94003.00
2023-11-10T03:02:55.139Z,94005.00
2023-11-10T03:03:55.133Z,94007.00
2023-11-10T03:34:26.833Z,93952.00
2023-11-10T03:35:19.140Z,93940.00
2023-11-10T03:36:18.233Z,93940.00
2023-11-10T03:37:18.044Z,93942.00
2023-11-10T03:38:18.077Z,93950.00
2023-11-10T03:39:18.016Z,93950.00
2023-11-10T03:40:18.080Z,93948.00
2023-11-10T03:41:18.205Z,93950.00
2023-11-10T03:54:58.658Z,93938.00
2023-11-10T03:55:58.342Z,93942.00
2023-11-10T03:56:59.361Z,93946.00
2023-11-10T03:57:58.047Z,93948.00
2023-11-10T03:58:58.060Z,93946.00
2023-11-10T03:59:58.134Z,93942.00
2023-11-10T04:00:58.082Z,93944.00
2023-11-10T04:01:58.057Z,93940.00
2023-11-10T04:02:58.102Z,93938.00
2023-11-10T04:03:58.114Z,93932.00
2023-11-10T04:04:58.087Z,93924.00
2023-11-10T04:05:58.102Z,93920.00
2023-11-10T04:06:58.099Z,93922.00
2023-11-10T04:07:58.045Z,93928.00
2023-11-10T04:08:58.024Z,93932.00
2023-11-10T04:09:58.066Z,93926.00
2023-11-10T04:10:57.988Z,93922.00
2023-11-10T04:11:58.668Z,93915.00
2023-11-10T04:12:58.874Z,93918.00
2023-11-10T04:13:58.015Z,93922.00
2023-11-10T04:14:58.069Z,93920.00
2023-11-10T04:15:58.242Z,93918.00
2023-11-10T04:16:58.151Z,93915.00
2023-11-10T04:17:58.130Z,93915.00
2023-11-10T04:18:58.059Z,93915.00
2023-11-10T04:19:57.996Z,93920.00
2023-11-10T04:20:58.082Z,93922.00
2023-11-10T04:21:58.181Z,93920.00
2023-11-10T04:22:58.231Z,93911.00
2023-11-10T04:23:58.346Z,93907.00
2023-11-10T04:24:58.105Z,93905.00
2023-11-10T04:25:58.245Z,93907.00
2023-11-10T04:26:58.147Z,93905.00
2023-11-10T04:27:58.237Z,93907.00
2023-11-10T04:28:58.373Z,93901.00
2023-11-10T04:29:58.325Z,93901.00
2023-11-10T04:30:58.611Z,93901.00
2023-11-10T04:31:58.409Z,93901.00
2023-11-10T04:32:58.446Z,93899.00
2023-11-10T04:33:58.551Z,93903.00
2023-11-10T04:34:58.422Z,93903.00
2023-11-10T04:35:58.526Z,93907.00
2023-11-10T04:36:58.526Z,93909.00
2023-11-10T04:37:58.532Z,93911.00
2023-11-10T04:38:58.699Z,93911.00
2023-11-10T04:39:58.642Z,93913.00
2023-11-10T04:40:58.548Z,93915.00
2023-11-10T04:41:58.556Z,93913.00
2023-11-10T04:42:58.876Z,93909.00
2023-11-10T04:43:58.599Z,93907.00
2023-11-10T04:44:58.624Z,93905.00
2023-11-10T04:45:58.626Z,93903.00
2023-11-10T04:46:58.592Z,93897.00
2023-11-10T04:47:58.606Z,93897.00
2023-11-10T04:48:58.592Z,93897.00
2023-11-10T04:49:58.686Z,93893.00
2023-11-10T04:50:59.849Z,93891.00
2023-11-10T04:51:58.824Z,93885.00
2023-11-10T04:52:58.911Z,93887.00
2023-11-10T04:53:58.833Z,93887.00
2023-11-10T04:54:58.947Z,93889.00
2023-11-10T04:55:58.879Z,93889.00
2023-11-10T04:56:59.956Z,93885.00
2023-11-10T04:57:58.954Z,93881.00
2023-11-10T04:58:59.146Z,93881.00
2023-11-10T04:59:58.992Z,93881.00
2023-11-10T05:00:59.350Z,93881.00
2023-11-10T05:01:59.195Z,93879.00
2023-11-10T05:02:59.561Z,93885.00
2023-11-10T05:03:59.121Z,93879.00
2023-11-10T05:05:00.401Z,93879.00
2023-11-10T05:05:59.110Z,93875.00
2023-11-10T05:06:59.123Z,93875.00
2023-11-10T05:13:32.925Z,93885.00
2023-11-10T05:14:34.786Z,93885.00
2023-11-10T05:15:32.798Z,93891.00
2023-11-10T05:16:32.530Z,93891.00
2023-11-10T05:17:31.962Z,93897.00
2023-11-10T05:19:32.087Z,93903.00
2023-11-10T05:20:32.051Z,93907.00
2023-11-10T05:21:32.017Z,93907.00
2023-11-10T05:22:31.967Z,93911.00
2023-11-10T05:23:31.979Z,93905.00
2023-11-10T05:24:32.088Z,93895.00
2023-11-10T05:25:31.902Z,93889.00
2023-11-10T05:26:31.915Z,93887.00
2023-11-10T05:27:31.924Z,93893.00
2023-11-10T05:28:31.905Z,93895.00
2023-11-10T05:29:31.822Z,93899.00
2023-11-10T05:30:32.756Z,93889.00
2023-11-10T05:31:31.877Z,93885.00
2023-11-10T05:32:32.908Z,93881.00
2023-11-10T05:33:31.906Z,93883.00
2023-11-10T05:34:31.911Z,93889.00
2023-11-10T05:35:31.865Z,93893.00
2023-11-10T05:36:31.927Z,93895.00
2023-11-10T05:37:31.792Z,93889.00
2023-11-10T05:38:31.801Z,93885.00
2023-11-10T05:39:32.731Z,93885.00
2023-11-10T05:40:31.806Z,93885.00
2023-11-10T05:41:31.817Z,93887.00
2023-11-10T05:42:31.861Z,93887.00
2023-11-10T05:43:31.833Z,93889.00
2023-11-10T05:44:31.819Z,93889.00
2023-11-10T05:45:31.873Z,93891.00
2023-11-10T05:46:31.770Z,93893.00
2023-11-10T05:47:31.776Z,93895.00
2023-11-10T05:48:31.736Z,93887.00
2023-11-10T05:49:31.750Z,93885.00
2023-11-10T05:50:32.287Z,93883.00
2023-11-10T05:51:31.802Z,93879.00
2023-11-10T05:52:31.680Z,93877.00
2023-11-10T05:53:31.785Z,93879.00
2023-11-10T05:54:31.692Z,93881.00
2023-11-10T05:55:31.952Z,93879.00
2023-11-10T05:56:31.685Z,93877.00
2023-11-10T05:57:31.822Z,93881.00
2023-11-10T05:58:31.726Z,93881.00
2023-11-10T05:59:31.609Z,93885.00
2023-11-10T06:00:31.677Z,93891.00
2023-11-10T06:01:31.651Z,93893.00
2023-11-10T06:02:31.723Z,93891.00
2023-11-10T06:03:31.727Z,93889.00
2023-11-10T06:04:35.218Z,93893.00
2023-11-10T06:05:31.661Z,93897.00
2023-11-10T06:06:31.615Z,93899.00
2023-11-10T06:07:31.665Z,93897.00
2023-11-10T06:08:32.211Z,93897.00
2023-11-10T06:09:31.630Z,93895.00
2023-11-10T06:10:31.597Z,93895.00
2023-11-10T06:11:39.454Z,93897.00
2023-11-10T06:12:32.661Z,93895.00
2023-11-10T06:13:34.225Z,93893.00
2023-11-10T06:14:31.622Z,93887.00
2023-11-10T06:15:31.544Z,93891.00
2023-11-10T06:16:31.579Z,93899.00
2023-11-10T06:17:31.545Z,93895.00
2023-11-10T06:18:31.596Z,93887.00
2023-11-10T06:19:31.535Z,93873.00
2023-11-10T06:20:31.462Z,93871.00
2023-11-10T06:21:31.524Z,93877.00
2023-11-10T06:22:31.517Z,93885.00
2023-11-10T06:23:31.499Z,93885.00
2023-11-10T06:24:31.647Z,93885.00
2023-11-10T06:25:31.481Z,93881.00
2023-11-10T06:26:31.480Z,93877.00
2023-11-10T06:27:31.556Z,93881.00
2023-11-10T06:28:31.496Z,93883.00
2023-11-10T06:29:31.549Z,93881.00
2023-11-10T06:30:31.740Z,93881.00
2023-11-10T06:31:31.587Z,93887.00
2023-11-10T06:32:31.464Z,93897.00
2023-11-10T06:33:31.460Z,93903.00
2023-11-10T06:34:31.478Z,93907.00
2023-11-10T06:35:32.185Z,93905.00
2023-11-10T06:36:31.521Z,93903.00
2023-11-10T06:37:31.485Z,93905.00
2023-11-10T06:38:31.494Z,93905.00
2023-11-10T06:39:31.570Z,93903.00
2023-11-10T06:40:31.385Z,93907.00
2023-11-10T06:41:31.391Z,93913.00
2023-11-10T06:42:31.362Z,93918.00
2023-11-10T06:43:31.476Z,93917.00
2023-11-10T06:44:31.413Z,93909.00
2023-11-10T06:45:31.460Z,93907.00
2023-11-10T06:46:31.467Z,93909.00
2023-11-10T06:47:31.603Z,93911.00
2023-11-10T06:48:31.346Z,93907.00
2023-11-10T06:49:31.296Z,93899.00
2023-11-10T06:50:31.371Z,93901.00
2023-11-10T06:51:31.807Z,93913.00
2023-11-10T06:52:31.359Z,93918.00
2023-11-10T06:53:31.775Z,93926.00
2023-11-10T06:54:31.316Z,93926.00
2023-11-10T06:55:31.369Z,93922.00
2023-11-10T06:56:32.197Z,93924.00
2023-11-10T06:57:31.307Z,93924.00
2023-11-10T06:58:31.305Z,93918.00
2023-11-10T06:59:31.226Z,93915.00
2023-11-10T07:00:31.343Z,93913.00
2023-11-10T07:01:31.226Z,93920.00
2023-11-10T07:02:31.303Z,93932.00
2023-11-10T07:03:31.331Z,93940.00
2023-11-10T07:04:32.270Z,93942.00
2023-11-10T07:05:31.316Z,93930.00
2023-11-10T07:06:31.366Z,93922.00
2023-11-10T07:07:32.178Z,93915.00
2023-11-10T07:08:31.500Z,93913.00
2023-11-10T07:09:31.498Z,93915.00
2023-11-10T07:10:31.616Z,93915.00
2023-11-10T07:11:31.694Z,93920.00
2023-11-10T07:12:31.642Z,93922.00
2023-11-10T07:13:31.973Z,93924.00
2023-11-10T07:14:31.701Z,93924.00
2023-11-10T07:15:31.834Z,93926.00
2023-11-10T07:16:31.827Z,93924.00
2023-11-10T07:17:31.824Z,93928.00
2023-11-10T07:18:31.874Z,93928.00
2023-11-10T07:19:31.753Z,93926.00
2023-11-10T07:20:31.865Z,93924.00
2023-11-10T07:21:31.903Z,93926.00
2023-11-10T07:22:31.879Z,93920.00
2023-11-10T07:23:31.889Z,93920.00
2023-11-10T07:24:31.913Z,93924.00
2023-11-10T07:25:32.011Z,93922.00
2023-11-10T07:26:32.096Z,93930.00
2023-11-10T07:27:32.075Z,93928.00
2023-11-10T07:28:32.196Z,93930.00
2023-11-10T07:29:32.157Z,93932.00
2023-11-10T07:30:33.337Z,93924.00
2023-11-10T07:31:32.265Z,93924.00
2023-11-10T07:32:32.386Z,93924.00
2023-11-10T07:33:32.484Z,93922.00
2023-11-10T07:34:32.399Z,93922.00
2023-11-10T07:35:32.478Z,93928.00
2023-11-10T07:36:32.542Z,93928.00
2023-11-10T07:37:32.499Z,93924.00
2023-11-10T07:38:32.634Z,93920.00
2023-11-10T07:39:32.730Z,93915.00
2023-11-10T07:40:32.709Z,93917.00
2023-11-10T07:41:32.742Z,93920.00
2023-11-10T07:42:32.689Z,93924.00
2023-11-10T07:43:32.746Z,93924.00
2023-11-10T07:44:32.858Z,93924.00
2023-11-10T07:45:32.879Z,93922.00
2023-11-10T07:46:32.869Z,93917.00
2023-11-10T07:47:32.893Z,93913.00
2023-11-10T07:48:32.912Z,93909.00
2023-11-10T07:49:32.905Z,93907.00
2023-11-10T07:50:32.920Z,93909.00
2023-11-10T07:51:32.974Z,93905.00
2023-11-10T07:52:33.712Z,93907.00
2023-11-10T07:53:33.048Z,93907.00
2023-11-10T07:54:33.080Z,93911.00
2023-11-10T07:55:33.138Z,93913.00
2023-11-10T07:56:34.073Z,93915.00
2023-11-10T07:57:33.173Z,93913.00
2023-11-10T07:58:33.209Z,93918.00
2023-11-10T07:59:33.181Z,93913.00
2023-11-10T08:00:33.226Z,93909.00
2023-11-10T08:01:33.333Z,93907.00
2023-11-10T08:02:33.583Z,93911.00
2023-11-10T08:03:33.422Z,93909.00
2023-11-10T08:04:33.389Z,93915.00
2023-11-10T08:05:34.342Z,93913.00
2023-11-10T08:06:34.170Z,93913.00
2023-11-10T08:07:33.435Z,93915.00
2023-11-10T08:08:33.480Z,93911.00
2023-11-10T08:09:33.541Z,93909.00
2023-11-10T08:10:33.665Z,93911.00
2023-11-10T08:11:42.407Z,93909.00
2023-11-10T08:12:34.592Z,93915.00
2023-11-10T08:13:33.559Z,93917.00
2023-11-10T08:14:33.650Z,93917.00
2023-11-10T08:15:33.736Z,93915.00
2023-11-10T08:16:33.528Z,93915.00
2023-11-10T08:17:33.549Z,93915.00
2023-11-10T08:18:33.507Z,93911.00
2023-11-10T08:19:33.574Z,93913.00
2023-11-10T08:20:33.773Z,93911.00
2023-11-10T08:21:34.838Z,93905.00
2023-11-10T08:22:34.436Z,93909.00
2023-11-10T08:23:33.493Z,93913.00
2023-11-10T08:24:33.572Z,93911.00
2023-11-10T08:25:33.438Z,93913.00
2023-11-10T08:26:33.545Z,93913.00
2023-11-10T08:27:33.517Z,93913.00
2023-11-10T08:28:34.266Z,93909.00
2023-11-10T08:29:33.527Z,93911.00
2023-11-10T08:30:37.639Z,93909.00
2023-11-10T08:31:35.233Z,93905.00
2023-11-10T08:32:33.738Z,93905.00
2023-11-10T08:33:33.531Z,93905.00
2023-11-10T08:34:33.517Z,93905.00
2023-11-10T08:35:33.430Z,93901.00
2023-11-10T08:36:33.369Z,93905.00
2023-11-10T08:37:36.608Z,93913.00
2023-11-10T08:38:33.394Z,93909.00
2023-11-10T08:39:33.424Z,93909.00
2023-11-10T08:40:35.421Z,93907.00
2023-11-10T08:41:33.364Z,93907.00
2023-11-10T08:42:33.405Z,93905.00
2023-11-10T08:43:33.452Z,93909.00
2023-11-10T08:44:33.376Z,93907.00
2023-11-10T08:45:37.768Z,93905.00
2023-11-10T08:46:33.441Z,93901.00
2023-11-10T08:47:33.411Z,93903.00
2023-11-10T08:48:34.240Z,93901.00
2023-11-10T08:49:33.364Z,93901.00
2023-11-10T08:50:33.388Z,93895.00
2023-11-10T08:51:33.786Z,93893.00
2023-11-10T08:52:34.305Z,93889.00
2023-11-10T08:53:44.865Z,93889.00
2023-11-10T08:54:35.355Z,93885.00
2023-11-10T08:55:33.721Z,93885.00
2023-11-10T08:56:34.735Z,93883.00
2023-11-10T08:57:33.787Z,93879.00
2023-11-10T08:58:33.736Z,93875.00
2023-11-10T08:59:35.438Z,93871.00
2023-11-10T09:00:34.047Z,93864.00
2023-11-10T09:01:40.872Z,93864.00
2023-11-10T09:02:35.679Z,93856.00
2023-11-10T09:03:34.012Z,93858.00
2023-11-10T09:04:33.790Z,93862.00
2023-11-10T09:05:33.737Z,93858.00
2023-11-10T09:06:34.095Z,93856.00
2023-11-10T09:07:33.768Z,93854.00
2023-11-10T09:08:34.776Z,93852.00
2023-11-10T09:09:33.708Z,93850.00
2023-11-10T09:13:55.570Z,93846.00
2023-11-10T09:14:55.769Z,93846.00
2023-11-10T09:16:01.978Z,93840.00
2023-11-10T09:16:58.174Z,93840.00
2023-11-10T09:17:55.413Z,93830.00
2023-11-10T09:18:58.515Z,93830.00
2023-11-10T09:19:55.509Z,93830.00
2023-11-10T09:20:55.413Z,93826.00
2023-11-10T09:21:55.369Z,93832.00
2023-11-10T09:22:55.356Z,93832.00
2023-11-10T09:23:55.429Z,93832.00
2023-11-10T09:24:58.113Z,93826.00
2023-11-10T09:25:55.374Z,93826.00
2023-11-10T09:26:55.384Z,93828.00
2023-11-10T09:27:55.318Z,93824.00
2023-11-10T09:28:57.429Z,93824.00
2023-11-10T09:29:55.400Z,93822.00
2023-11-10T09:30:56.458Z,93821.00
2023-11-10T09:31:55.416Z,93819.00
2023-11-10T09:32:55.337Z,93819.00
2023-11-10T09:33:55.339Z,93811.00
2023-11-10T09:34:55.251Z,93809.00
2023-11-10T09:35:55.249Z,93805.00
2023-11-10T09:36:56.488Z,93801.00
2023-11-10T09:37:56.184Z,93799.00
2023-11-10T09:38:57.461Z,93797.00
2023-11-10T09:40:08.484Z,93801.00
2023-11-10T09:40:56.432Z,93803.00
2023-11-10T09:42:01.423Z,93799.00
2023-11-10T09:42:56.337Z,93803.00
2023-11-10T09:44:07.128Z,93807.00
2023-11-10T09:44:57.531Z,93807.00
2023-11-10T09:45:55.440Z,93809.00
2023-11-10T09:46:55.496Z,93813.00
2023-11-10T09:47:55.478Z,93815.00
2023-11-10T09:48:55.485Z,93813.00
2023-11-10T09:49:55.412Z,93813.00
2023-11-10T09:50:55.480Z,93811.00
2023-11-10T09:51:55.580Z,93807.00
2023-11-10T09:52:55.484Z,93803.00
2023-11-10T09:53:55.580Z,93803.00
2023-11-10T09:54:58.569Z,93799.00
2023-11-10T09:55:56.196Z,93795.00
2023-11-10T09:56:56.102Z,93795.00
2023-11-10T09:57:55.806Z,93791.00
2023-11-10T09:58:55.729Z,93793.00
2023-11-10T09:59:55.634Z,93797.00
2023-11-10T10:00:55.708Z,93797.00
2023-11-10T10:01:55.748Z,93797.00
2023-11-10T10:02:55.661Z,93795.00
2023-11-10T10:03:55.676Z,93795.00
2023-11-10T10:04:56.516Z,93791.00
2023-11-10T10:05:55.611Z,93791.00
2023-11-10T10:06:55.550Z,93787.00
2023-11-10T10:07:55.593Z,93783.00
2023-11-10T10:08:55.598Z,93779.00
2023-11-10T10:09:55.612Z,93777.00
2023-11-10T10:10:55.604Z,93773.00
2023-11-10T10:11:55.381Z,93775.00
2023-11-10T10:12:55.443Z,93771.00
2023-11-10T10:13:57.027Z,93770.00
2023-11-10T10:14:55.644Z,93766.00
2023-11-10T10:15:58.159Z,93768.00
2023-11-10T10:16:55.443Z,93766.00
2023-11-10T10:17:55.532Z,93764.00
2023-11-10T10:18:56.268Z,93762.00
2023-11-10T10:19:55.481Z,93760.00
2023-11-10T10:20:55.993Z,93758.00
2023-11-10T10:21:55.625Z,93756.00
2023-11-10T10:22:58.112Z,93754.00
2023-11-10T10:23:55.470Z,93748.00
2023-11-10T10:24:55.447Z,93750.00
2023-11-10T10:25:56.124Z,93746.00
2023-11-10T10:26:55.467Z,93746.00
2023-11-10T10:27:55.462Z,93742.00
2023-11-10T10:28:55.399Z,93736.00
2023-11-10T10:29:56.123Z,93740.00
2023-11-10T10:30:57.093Z,93740.00
2023-11-10T10:31:55.451Z,93738.00
2023-11-10T10:32:55.472Z,93734.00
2023-11-10T10:33:55.393Z,93736.00
2023-11-10T10:34:55.363Z,93738.00
2023-11-10T10:35:55.348Z,93732.00
2023-11-10T10:36:55.425Z,93730.00
2023-11-10T10:37:56.240Z,93728.00
2023-11-10T10:38:56.305Z,93726.00
2023-11-10T10:39:56.147Z,93720.00
2023-11-10T10:40:55.388Z,93722.00
2023-11-10T10:41:55.378Z,93716.00
2023-11-10T10:42:55.720Z,93713.00
2023-11-10T10:44:06.125Z,93718.00
2023-11-10T10:44:57.963Z,93716.00
2023-11-10T10:45:55.411Z,93709.00
2023-11-10T10:46:55.336Z,93713.00
2023-11-10T10:47:55.349Z,93715.00
2023-11-10T10:48:55.373Z,93711.00
2023-11-10T10:49:55.246Z,93716.00
2023-11-10T10:50:55.241Z,93720.00
2023-11-10T10:51:55.553Z,93713.00
2023-11-10T10:52:55.193Z,93711.00
2023-11-10T10:53:55.277Z,93715.00
2023-11-10T10:54:55.234Z,93711.00
2023-11-10T10:55:55.200Z,93711.00
2023-11-10T10:56:55.211Z,93713.00
2023-11-10T10:57:55.284Z,93707.00
2023-11-10T10:58:55.295Z,93707.00
2023-11-10T10:59:55.189Z,93703.00
2023-11-10T11:00:55.152Z,93699.00
2023-11-10T11:03:35.620Z,93699.00
2023-11-10T11:04:34.869Z,93697.00
2023-11-10T11:05:34.500Z,93693.00
2023-11-10T11:06:34.528Z,93697.00
2023-11-10T11:07:34.569Z,93689.00
2023-11-10T11:08:34.523Z,93689.00
2023-11-10T11:09:35.558Z,93691.00
2023-11-10T11:10:34.438Z,93689.00
2023-11-10T11:11:34.442Z,93689.00
2023-11-10T11:12:34.689Z,93689.00
2023-11-10T11:13:34.481Z,93691.00
2023-11-10T11:14:35.527Z,93689.00
2023-11-10T11:15:34.565Z,93689.00
2023-11-10T11:16:34.480Z,93691.00
2023-11-10T11:17:34.475Z,93691.00
2023-11-10T11:18:34.560Z,93691.00
2023-11-10T11:19:35.530Z,93687.00
2023-11-10T11:20:34.678Z,93685.00
2023-11-10T11:21:34.991Z,93681.00
2023-11-10T11:22:34.576Z,93681.00
2023-11-10T11:23:34.678Z,93685.00
2023-11-10T11:24:34.741Z,93679.00
2023-11-10T11:25:34.715Z,93677.00
2023-11-10T11:26:34.762Z,93677.00
2023-11-10T11:27:34.770Z,93675.00
2023-11-10T11:28:35.984Z,93679.00
2023-11-10T11:29:35.570Z,93673.00
2023-11-10T11:30:34.996Z,93677.00
2023-11-10T11:31:34.946Z,93673.00
2023-11-10T11:32:36.958Z,93673.00
2023-11-10T11:33:37.621Z,93673.00
2023-11-10T11:34:34.911Z,93669.00
2023-11-10T11:35:34.963Z,93671.00
2023-11-10T11:36:35.094Z,93675.00
2023-11-10T11:37:35.036Z,93673.00
2023-11-10T11:38:36.909Z,93673.00
2023-11-10T11:39:37.037Z,93663.00
2023-11-10T11:40:35.120Z,93660.00
2023-11-10T11:41:36.000Z,93663.00
2023-11-10T11:42:34.985Z,93663.00
2023-11-10T11:43:34.904Z,93661.00
2023-11-10T11:44:36.029Z,93665.00
2023-11-10T11:45:34.907Z,93663.00
2023-11-10T11:46:36.098Z,93663.00
2023-11-10T11:47:34.890Z,93660.00
2023-11-10T11:48:34.965Z,93660.00
2023-11-10T11:49:35.581Z,93660.00
2023-11-10T11:50:36.446Z,93656.00
2023-11-10T11:51:36.985Z,93654.00
2023-11-10T11:52:34.828Z,93658.00
2023-11-10T11:53:34.823Z,93660.00
2023-11-10T11:54:35.549Z,93660.00
2023-11-10T11:55:34.750Z,93660.00
2023-11-10T11:56:35.649Z,93663.00
2023-11-10T11:57:35.186Z,93654.00
2023-11-10T11:58:34.767Z,93656.00
2023-11-10T11:59:34.973Z,93652.00
2023-11-10T12:00:35.000Z,93654.00
2023-11-10T12:01:34.876Z,93656.00
2023-11-10T12:02:37.802Z,93656.00
2023-11-10T12:03:35.198Z,93658.00
2023-11-10T12:04:36.053Z,93654.00
2023-11-10T12:05:34.987Z,93656.00
2023-11-10T12:06:35.032Z,93652.00
2023-11-10T12:07:34.926Z,93652.00
2023-11-10T12:08:35.657Z,93656.00
2023-11-10T12:09:35.676Z,93654.00
2023-11-10T12:10:35.576Z,93650.00
2023-11-10T12:11:34.956Z,93652.00
2023-11-10T12:12:35.082Z,93654.00
2023-11-10T12:13:35.453Z,93650.00
2023-11-10T12:14:34.880Z,93656.00
2023-11-10T12:15:38.030Z,93646.00
2023-11-10T12:16:39.166Z,93648.00
2023-11-10T12:17:35.848Z,93646.00
2023-11-10T12:18:35.630Z,93646.00
2023-11-10T12:19:35.421Z,93644.00
2023-11-10T12:20:34.919Z,93638.00
2023-11-10T12:21:37.732Z,93640.00
2023-11-10T12:22:34.829Z,93640.00
2023-11-10T12:23:35.014Z,93642.00
2023-11-10T12:24:34.932Z,93638.00
2023-11-10T12:25:34.827Z,93640.00
2023-11-10T12:26:35.977Z,93638.00
2023-11-10T12:27:36.115Z,93638.00
2023-11-10T12:28:34.840Z,93642.00
2023-11-10T12:29:34.862Z,93644.00
2023-11-10T12:30:35.700Z,93640.00
2023-11-10T12:31:34.989Z,93642.00
2023-11-10T12:32:35.709Z,93644.00
2023-11-10T12:33:36.046Z,93640.00
2023-11-10T12:34:34.934Z,93640.00
2023-11-10T12:35:34.920Z,93642.00
2023-11-10T12:36:35.755Z,93644.00
2023-11-10T12:37:34.938Z,93642.00
2023-11-10T12:38:34.804Z,93640.00
2023-11-10T12:39:34.780Z,93638.00
2023-11-10T12:40:35.561Z,93636.00
2023-11-10T12:41:35.273Z,93638.00
2023-11-10T12:42:34.757Z,93638.00
2023-11-10T12:43:34.738Z,93636.00
2023-11-10T12:44:34.820Z,93636.00
2023-11-10T12:45:34.743Z,93634.00
2023-11-10T12:46:34.772Z,93636.00
2023-11-10T12:47:35.843Z,93636.00
2023-11-10T12:48:34.809Z,93634.00
2023-11-10T12:49:34.684Z,93634.00
2023-11-10T12:50:34.717Z,93638.00
2023-11-10T12:51:35.667Z,93640.00